Monday, May 30, 2016, 8:55 PM CDT
Back to Local

KHDC, Hammond, Hammond Municipal Airport

Location: Hammond, LA, United States Lat: 30.521
Local Time: 8:55 PM CDT ( 1:55 GMT) Lon: -90.418
Time Zone: US/Central Elev: 42 ft

Show me the last for .
Show Coded

Time T Td Feel RH Dir Speed Gust Alt SLP Vis Weather Sky Remarks
2016-05-30 20:35 77 68 80 73 - Calm - 29.95 - 10 SCT095 None
2016-05-30 20:15 77 68 80 73 360° 7 - 29.95 - 10 SCT095 None
2016-05-30 19:55 77 68 80 73 - Calm - 29.95 - 10 CLR None
2016-05-30 19:15 81 64 83 57 - Calm - 29.94 - 10 CLR None
2016-05-30 18:55 84 61 85 45 - Calm - 29.93 - 10 CLR None
2016-05-30 18:35 82 63 84 51 230° 3 - 29.92 - 10 CLR None
2016-05-30 18:15 82 63 84 51 200° 12 - 29.92 - 10 CLR None
2016-05-30 17:55 84 63 86 48 210° 13 20 29.92 - 10 CLR None
2016-05-30 17:35 88 66 91 48 200° 17 - 29.92 - 10 CLR None
2016-05-30 17:15 90 66 93 46 160° 7 - 29.93 - 10 CLR None
2016-05-30 16:55 88 64 90 45 170° 14 18 29.94 - 10 VCTS CLR None
2016-05-30 16:35 88 63 90 43 180° 7 - 29.93 - 10 CLR None
2016-05-30 16:15 90 63 91 40 200° 9 - 29.93 - 10 VCTS CLR None
2016-05-30 15:55 91 64 94 41 - Calm - 29.94 - 10 SCT046 SCT055 SCT070 None
2016-05-30 15:35 88 61 89 40 70° 5 - 29.96 - 10 BKN044 BKN055 OVC095 None
2016-05-30 15:15 88 64 90 45 100° 8 - 29.97 - 10 TS BKN044 BKN050 None
2016-05-30 14:55 91 68 97 46 170° 7 - 29.97 - 10 SCT049 SCT055 None
2016-05-30 14:35 90 66 93 46 220° 8 - 29.97 - 10 BKN047 BKN095 None
2016-05-30 14:15 91 64 94 41 230° 7 - 29.97 - 10 SCT050 BKN080 BKN090 None
2016-05-30 13:55 90 68 94 49 200° 9 - 29.98 - 10 SCT050 None
2016-05-30 13:35 90 64 92 43 230° 5 - 29.99 - 10 SCT050 SCT065 None
2016-05-30 13:15 90 61 - 38 240° 5 - 30.00 - 10 BKN050 BKN065 None
2016-05-30 12:55 90 63 91 40 - Calm - 30.00 - 10 SCT050 SCT070 BKN080 None
2016-05-30 12:35 91 63 - 38 100° 7 - 30.01 - 10 SCT050 BKN060 BKN075 None
2016-05-30 12:15 91 63 - 38 - Calm - 30.01 - 10 SCT046 SCT060 BKN075 None
2016-05-30 11:55 90 64 92 43 - Calm - 30.01 - 10 SCT044 BKN050 None
2016-05-30 11:35 90 64 92 43 - Calm - 30.02 - 10 BKN046 BKN055 None
2016-05-30 11:15 90 64 92 43 80° 5 - 30.02 - 10 CLR None
2016-05-30 10:55 90 64 92 43 - Calm - 30.03 - 10 CLR None
2016-05-30 10:35 88 68 92 52 360° 5 - 30.03 - 10 CLR None
2016-05-30 10:15 88 68 92 52 20° 3 - 30.03 - 10 CLR None
2016-05-30 09:55 86 68 90 55 - Calm - 30.03 - 10 CLR None
2016-05-30 09:35 86 70 91 58 - Calm - 30.04 - 10 CLR None
2016-05-30 09:15 82 70 87 65 - Calm - 30.04 - 10 CLR None
2016-05-30 08:55 81 70 85 69 - Calm - 30.04 - 10 CLR None
2016-05-30 08:35 79 70 83 74 320° 3 - 30.04 - 10 CLR None
2016-05-30 08:15 77 70 81 78 - Calm - 30.04 - 10 CLR None
2016-05-30 07:55 75 70 79 83 - Calm - 30.03 - 10 CLR None
2016-05-30 07:35 73 68 77 83 - Calm - 30.04 - 10 CLR None
2016-05-30 07:15 72 68 76 88 - Calm - 30.04 - 7 CLR None
2016-05-30 06:55 70 68 - 94 - Calm - 30.04 - 5 BR CLR None
2016-05-30 06:35 70 66 - 88 - Calm - 30.03 - 5 BR CLR None
2016-05-30 06:15 68 64 - 88 350° 5 - 30.02 - 7 CLR None
2016-05-30 05:55 68 64 - 88 - Calm - 30.01 - 10 CLR None
2016-05-30 05:35 70 66 - 88 - Calm - 30.00 - 10 CLR None
2016-05-30 05:15 70 66 - 88 - Calm - 30.00 - 7 CLR None
2016-05-30 04:55 70 66 - 88 - Calm - 30.00 - 10 CLR None
2016-05-30 04:35 72 68 76 88 - Calm - 30.00 - 10 CLR None
2016-05-30 04:15 70 66 - 88 - Calm - 30.01 - 10 CLR None
2016-05-30 03:55 72 68 76 88 - Calm - 30.00 - 10 CLR None
2016-05-30 03:35 72 68 76 88 - Calm - 29.99 - 10 CLR None
2016-05-30 03:15 72 68 76 88 - Calm - 30.00 - 10 CLR None
2016-05-30 02:55 72 68 76 88 - Calm - 30.01 - 10 CLR None
2016-05-30 02:35 72 68 76 88 - Calm - 30.02 - 10 CLR None
2016-05-30 02:15 73 68 77 83 - Calm - 30.02 - 10 CLR None
2016-05-30 01:55 73 68 77 83 - Calm - 30.03 - 10 CLR None
2016-05-30 01:35 75 68 79 78 260° 3 - 30.05 - 10 SCT085 None
2016-05-30 01:15 73 68 77 83 - Calm - 30.07 - 10 CLR None
2016-05-30 00:55 73 68 77 83 - Calm - 30.07 - 10 CLR None
2016-05-30 00:35 73 68 77 83 - Calm - 30.08 - 10 CLR None
2016-05-30 00:15 72 68 76 88 - Calm - 30.08 - 10 CLR None
2016-05-29 23:55 72 68 76 88 - Calm - 30.07 - 10 CLR None
2016-05-29 23:35 73 68 77 83 - Calm - 30.06 - 10 CLR None
2016-05-29 23:15 72 68 76 88 - Calm - 30.06 - 10 CLR None
2016-05-29 22:55 73 68 77 83 - Calm - 30.06 - 10 CLR None
2016-05-29 22:35 75 68 79 78 - Calm - 30.05 - 10 CLR None
2016-05-29 22:15 75 68 79 78 - Calm - 30.05 - 10 CLR None
2016-05-29 21:55 77 68 80 73 - Calm - 30.04 - 10 CLR None
2016-05-29 21:35 77 68 80 73 - Calm - 30.03 - 10 CLR None
2016-05-29 21:15 77 68 80 73 - Calm - 30.02 - 10 CLR None

Support USWX by starting your Amazon purchase here.